首页
METAR-TAF:

METAR-TAF

机场 :

帕尔马机场

帕爾馬, 意大利

纬度: 44-49-17N, 经度: 010-17-41E, 海拔: 50米

当前天气观测

该预报发布于7小时和56分钟前的21:50 UTC
风速3节,风向西南
温度 7°C
湿度 100%
气压 1031 hPa
能見度: 6000

METAR: LIMP 222150Z 23003KT 6000 NSC 07/07 Q1031

时间: 06:46 (05:46 UTC)

预报

该预报发布于46分钟前的05:00 UTC
预报有效从23日的 06点(UTC)到 24日的 06点(UTC)
风速5节,风向多变
能見度: 3500
轻雾
成为
从 23日的 08点(UTC)到 23日的 10点(UTC)
能見度: 6000
成为
从 23日的 20点(UTC)到 23日的 22点(UTC)
能見度: 2500
轻雾
短暂存在
从 24日的 03点(UTC)到 24日的 06点(UTC)
能見度: 1200
碎片雾

TAF: LIMP 230500Z 2306/2406 VRB05KT 3500 BR NSC BECMG 2308/2310 6000 BECMG 2320/2322 2500 BR TEMPO 2403/2406 1200 BCFG

超过4000个机场的气象观测和天气预报(METAR&TAF报告)。

可查询的气象台以黄色和红色小点在地图上表示。

将鼠标移到小点上方,可查看气象台名称。

然后点击查看天气观测和预报。

如需切换地图:点击带黑十字的绿色按钮放大地图;点击带横线的绿色按钮缩小地图;或者点击绿色箭头查看邻近地区的地图。


METAR-TAF: